Time;durP1;ratioP1;P1;durP2;ratioP2;P2;SDS_P1;SDS_P2;PMS_P1;PMS_P2;Temp;Humidity;BMP_temperature;BMP_pressure;BME280_temperature;BME280_humidity;BME280_pressure;Samples;Min_cycle;Max_cycle;Signal;HPM_P1;HPM_P2
2020/12/29 00:05:42;;;;;;;4.35;2.03;;;23.50;44.00;;;;;;21019959;28;20147;-16
2020/12/29 00:15:43;;;;;;;5.20;1.80;;;23.50;44.00;;;;;;21022419;28;20032;-14
2020/12/29 00:25:43;;;;;;;4.90;1.58;;;23.20;44.00;;;;;;20976822;28;20582;-14
2020/12/29 00:35:44;;;;;;;10.32;2.50;;;23.10;44.20;;;;;;20981501;28;20044;-15
2020/12/29 00:45:44;;;;;;;5.20;1.60;;;22.90;44.40;;;;;;21021750;28;20472;-15
2020/12/29 00:55:45;;;;;;;4.30;1.80;;;22.60;44.60;;;;;;21025269;28;20549;-16
2020/12/29 01:05:46;;;;;;;4.00;1.52;;;22.20;44.90;;;;;;21012391;28;20486;-16
2020/12/29 01:15:48;;;;;;;7.18;2.30;;;21.90;45.20;;;;;;21020101;28;20037;-16
2020/12/29 01:25:48;;;;;;;5.97;1.75;;;21.90;44.90;;;;;;21030077;28;20108;-16
2020/12/29 01:35:49;;;;;;;8.20;2.08;;;21.70;44.80;;;;;;21028366;28;20028;-16
2020/12/29 01:45:49;;;;;;;5.55;2.45;;;21.60;44.50;;;;;;21009612;28;20020;-16
2020/12/29 01:55:51;;;;;;;4.90;2.17;;;21.50;44.50;;;;;;20995111;28;20070;-15
2020/12/29 02:05:52;;;;;;;3.25;1.77;;;21.30;44.50;;;;;;20994894;28;20034;-15
2020/12/29 02:15:53;;;;;;;5.43;2.00;;;21.20;44.50;;;;;;21020367;28;20033;-15
2020/12/29 02:25:53;;;;;;;4.05;1.50;;;21.30;44.20;;;;;;21012578;28;20744;-15
2020/12/29 02:35:54;;;;;;;5.13;2.13;;;21.20;44.00;;;;;;20976970;28;20033;-15
2020/12/29 02:45:55;;;;;;;2.45;1.63;;;21.00;44.10;;;;;;20996225;28;20112;-15
2020/12/29 02:55:55;;;;;;;6.38;2.08;;;20.90;44.20;;;;;;20985459;28;20039;-15
2020/12/29 03:05:56;;;;;;;2.33;1.52;;;20.70;44.30;;;;;;21000470;22;20099;-14
2020/12/29 03:15:56;;;;;;;3.85;1.60;;;20.70;44.10;;;;;;20850351;28;20025;-14
2020/12/29 03:25:57;;;;;;;2.35;1.63;;;20.60;44.10;;;;;;20831947;28;20034;-14
2020/12/29 03:35:58;;;;;;;2.83;1.25;;;20.60;44.10;;;;;;20819039;28;20052;-14
2020/12/29 03:45:58;;;;;;;1.95;1.08;;;20.50;44.10;;;;;;20830901;28;20036;-14
2020/12/29 03:55:59;;;;;;;1.67;1.10;;;20.40;44.10;;;;;;20818468;28;20041;-14
2020/12/29 04:05:59;;;;;;;6.55;1.55;;;20.30;44.40;;;;;;20818210;28;20405;-14
2020/12/29 04:16:00;;;;;;;2.42;1.35;;;20.10;44.50;;;;;;20830454;28;20049;-14
2020/12/29 04:26:00;;;;;;;2.38;1.00;;;20.20;44.20;;;;;;20822913;28;20113;-14
2020/12/29 04:36:01;;;;;;;1.67;1.13;;;20.10;44.20;;;;;;20845040;28;20091;-14
2020/12/29 04:46:04;;;;;;;2.85;1.27;;;20.10;44.20;;;;;;20823329;28;20029;-14
2020/12/29 04:56:09;;;;;;;2.15;1.05;;;20.00;44.20;;;;;;20821517;28;20346;-14
2020/12/29 05:06:09;;;;;;;6.88;1.83;;;20.00;44.10;;;;;;20849594;28;20041;-15
2020/12/29 05:16:10;;;;;;;1.92;1.00;;;20.00;44.30;;;;;;20858173;28;20035;-15
2020/12/29 05:26:12;;;;;;;1.60;0.73;;;20.20;44.30;;;;;;20854663;28;20397;-15
2020/12/29 05:36:13;;;;;;;1.73;0.93;;;20.70;43.00;;;;;;20857155;28;20571;-14
2020/12/29 05:46:15;;;;;;;3.83;1.08;;;21.30;41.80;;;;;;20843770;28;20375;-14
2020/12/29 05:56:16;;;;;;;0.90;0.50;;;21.90;40.60;;;;;;20846741;28;20492;-14
2020/12/29 06:06:21;;;;;;;1.27;0.50;;;22.40;39.80;;;;;;20851803;28;20385;-17
2020/12/29 06:16:31;;;;;;;1.70;0.95;;;22.30;39.90;;;;;;20867356;28;20984;-14
2020/12/29 06:26:33;;;;;;;1.92;1.65;;;22.30;39.60;;;;;;20848818;28;20452;-14
2020/12/29 06:36:37;;;;;;;1.70;0.88;;;22.10;39.90;;;;;;20850666;28;20032;-14
2020/12/29 06:46:37;;;;;;;0.80;0.60;;;21.90;40.00;;;;;;20833320;28;20374;-14
2020/12/29 06:56:57;;;;;;;1.02;0.50;;;21.70;40.30;;;;;;20832699;28;20018;-15
2020/12/29 07:06:57;;;;;;;2.10;1.00;;;21.70;40.20;;;;;;20822515;28;20025;-15
2020/12/29 07:16:59;;;;;;;1.88;0.50;;;21.60;40.40;;;;;;20819503;28;20021;-15
2020/12/29 07:27:02;;;;;;;1.75;0.85;;;21.60;40.20;;;;;;20825638;28;20057;-15
2020/12/29 07:37:03;;;;;;;1.35;0.40;;;21.50;40.40;;;;;;20817685;28;20099;-15
2020/12/29 07:47:04;;;;;;;3.08;0.77;;;21.50;40.20;;;;;;20818504;28;20055;-15
2020/12/29 07:57:04;;;;;;;2.88;0.43;;;21.40;40.40;;;;;;20822334;28;20080;-15
2020/12/29 08:07:08;;;;;;;1.02;0.40;;;21.50;40.30;;;;;;20823577;28;20100;-15
2020/12/29 08:17:09;;;;;;;0.73;0.30;;;21.40;40.50;;;;;;20832927;28;20063;-15
2020/12/29 08:27:10;;;;;;;2.90;0.60;;;21.20;40.70;;;;;;20832273;28;20517;-14
2020/12/29 08:37:13;;;;;;;1.48;0.63;;;21.00;40.90;;;;;;20831709;28;20026;-15
2020/12/29 08:47:14;;;;;;;3.92;0.77;;;20.70;41.40;;;;;;20844482;28;20444;-14
2020/12/29 08:57:17;;;;;;;3.58;0.60;;;20.60;41.60;;;;;;20844380;28;20033;-14
2020/12/29 09:07:17;;;;;;;3.60;1.13;;;20.50;41.60;;;;;;20871755;23;20679;-16
2020/12/29 09:17:18;;;;;;;4.60;1.40;;;20.40;41.70;;;;;;20967233;28;20036;-14
2020/12/29 09:27:30;;;;;;;1.70;0.77;;;20.40;42.00;;;;;;20999430;28;20119;-16
2020/12/29 09:37:31;;;;;;;2.65;0.75;;;20.40;42.20;;;;;;20989476;28;20016;-14
2020/12/29 09:47:31;;;;;;;2.28;0.82;;;20.10;42.90;;;;;;20989543;28;20079;-15
2020/12/29 09:57:32;;;;;;;2.13;0.90;;;20.30;42.90;;;;;;20990858;28;20021;-15
2020/12/29 10:07:33;;;;;;;2.65;0.30;;;20.10;43.20;;;;;;20992717;28;20174;-15
2020/12/29 10:17:33;;;;;;;8.77;1.42;;;20.10;43.40;;;;;;20990033;28;20023;-15
2020/12/29 10:27:34;;;;;;;14.90;1.88;;;20.60;43.00;;;;;;20988495;28;20029;-16
2020/12/29 10:37:35;;;;;;;12.43;1.63;;;21.20;42.70;;;;;;20990888;28;20036;-16
2020/12/29 10:47:35;;;;;;;7.75;1.38;;;21.80;41.80;;;;;;21006456;28;20079;-15
2020/12/29 10:57:36;;;;;;;5.47;1.55;;;22.40;40.80;;;;;;20958730;28;20087;-16
2020/12/29 11:07:37;;;;;;;16.50;2.73;;;22.90;39.80;;;;;;20985368;28;20021;-15
2020/12/29 11:17:37;;;;;;;9.25;1.40;;;23.40;38.90;;;;;;20985313;28;20037;-15
2020/12/29 11:27:38;;;;;;;13.77;2.40;;;23.50;38.70;;;;;;20986664;28;20028;-15
2020/12/29 11:37:38;;;;;;;20.48;3.00;;;23.50;39.20;;;;;;20950030;28;20021;-15
2020/12/29 11:47:39;;;;;;;17.17;2.35;;;23.80;39.00;;;;;;20998062;28;20056;-15
2020/12/29 11:57:39;;;;;;;13.18;2.30;;;24.00;39.10;;;;;;21037040;28;20442;-16
2020/12/29 12:07:40;;;;;;;12.48;1.83;;;24.20;37.10;;;;;;21040957;28;20089;-16
2020/12/29 12:17:40;;;;;;;10.10;3.17;;;24.40;36.10;;;;;;21050791;28;20078;-15
2020/12/29 12:27:41;;;;;;;19.73;3.35;;;24.70;36.40;;;;;;21040717;28;20024;-14
2020/12/29 12:37:41;;;;;;;14.45;2.85;;;24.60;37.20;;;;;;21053218;28;20035;-15
2020/12/29 12:47:42;;;;;;;10.20;2.05;;;24.50;38.00;;;;;;21041622;28;20104;-15
2020/12/29 12:57:42;;;;;;;16.35;2.97;;;24.60;38.30;;;;;;21053107;28;20063;-16
2020/12/29 13:07:43;;;;;;;23.05;4.15;;;24.30;39.10;;;;;;21053584;28;20115;-15
2020/12/29 13:17:45;;;;;;;17.98;3.53;;;24.20;39.10;;;;;;21050019;28;20117;-15
2020/12/29 13:27:45;;;;;;;22.88;5.45;;;24.00;39.40;;;;;;21055993;28;20108;-16
2020/12/29 13:37:46;;;;;;;24.65;4.25;;;23.90;39.00;;;;;;21033751;28;20040;-16
2020/12/29 13:47:47;;;;;;;15.80;3.40;;;23.60;38.60;;;;;;21063627;28;20046;-16
2020/12/29 13:57:47;;;;;;;23.83;3.17;;;23.80;38.70;;;;;;21086403;28;20040;-18
2020/12/29 14:07:48;;;;;;;32.13;5.57;;;24.10;38.70;;;;;;21084453;28;20040;-15
2020/12/29 14:17:48;;;;;;;32.00;4.88;;;23.90;39.10;;;;;;21063319;28;20075;-15
2020/12/29 14:27:49;;;;;;;20.63;4.78;;;24.00;39.30;;;;;;21078794;28;20039;-15
2020/12/29 14:37:50;;;;;;;34.17;4.82;;;23.80;40.10;;;;;;21084668;28;20062;-15
2020/12/29 14:47:50;;;;;;;38.97;5.40;;;24.00;40.20;;;;;;21071178;28;20115;-15
2020/12/29 14:57:51;;;;;;;27.08;6.43;;;23.70;40.60;;;;;;21072721;28;20126;-14
2020/12/29 15:07:51;;;;;;;57.53;13.27;;;23.80;39.80;;;;;;21080170;28;20028;-15
2020/12/29 15:17:52;;;;;;;35.58;10.93;;;23.70;39.50;;;;;;21058680;28;20030;-15
2020/12/29 15:27:52;;;;;;;34.00;9.05;;;23.80;38.80;;;;;;21074531;28;20032;-16
2020/12/29 15:37:53;;;;;;;47.58;10.13;;;23.60;38.70;;;;;;21055269;28;20032;-16
2020/12/29 15:47:53;;;;;;;30.20;7.93;;;23.60;38.50;;;;;;21054650;28;20480;-14
2020/12/29 15:57:54;;;;;;;25.35;7.90;;;23.80;37.40;;;;;;21034582;28;20116;-16
2020/12/29 16:07:55;;;;;;;14.02;5.30;;;23.70;37.10;;;;;;21066864;28;20028;-15
2020/12/29 16:17:56;;;;;;;11.88;4.82;;;23.70;36.80;;;;;;21051768;28;20028;-15
2020/12/29 16:27:56;;;;;;;12.07;4.78;;;24.10;36.10;;;;;;21020226;28;20112;-15
2020/12/29 16:37:57;;;;;;;9.93;3.42;;;24.30;35.50;;;;;;21016892;28;20052;-15
2020/12/29 16:47:57;;;;;;;11.50;4.00;;;24.10;35.70;;;;;;21044098;28;20099;-15
2020/12/29 16:57:58;;;;;;;8.23;3.45;;;24.40;35.40;;;;;;21042909;28;20024;-15
2020/12/29 17:07:58;;;;;;;8.13;4.10;;;24.40;35.20;;;;;;21061086;28;20033;-15
2020/12/29 17:17:59;;;;;;;13.77;5.07;;;24.30;35.90;;;;;;21048257;28;20540;-15
2020/12/29 17:27:59;;;;;;;23.98;5.53;;;24.30;36.40;;;;;;21037136;28;20024;-15
2020/12/29 17:38:00;;;;;;;9.80;4.63;;;24.40;36.70;;;;;;21034971;28;20094;-15
2020/12/29 17:48:02;;;;;;;9.65;4.93;;;24.60;36.80;;;;;;21044631;28;20431;-15
2020/12/29 17:58:07;;;;;;;18.58;6.47;;;24.40;37.40;;;;;;21051186;28;20050;-16
2020/12/29 18:08:07;;;;;;;11.43;5.68;;;24.30;37.10;;;;;;21051291;28;20027;-15
2020/12/29 18:18:08;;;;;;;15.80;4.87;;;24.10;36.80;;;;;;21033560;28;20094;-15
2020/12/29 18:28:08;;;;;;;14.38;4.63;;;24.10;37.50;;;;;;21030278;28;20480;-15
2020/12/29 18:38:09;;;;;;;12.48;4.72;;;24.10;39.70;;;;;;21025663;28;20040;-14
2020/12/29 18:48:09;;;;;;;11.90;4.30;;;24.20;39.40;;;;;;21048418;28;20027;-14
2020/12/29 18:58:10;;;;;;;16.52;6.65;;;24.00;39.80;;;;;;21066641;28;20020;-15
2020/12/29 19:08:10;;;;;;;12.43;4.45;;;24.00;40.10;;;;;;21062836;28;20024;-15
2020/12/29 19:18:11;;;;;;;16.58;5.28;;;24.00;40.20;;;;;;21060686;28;20512;-15
2020/12/29 19:28:11;;;;;;;6.22;3.67;;;23.90;40.70;;;;;;21058136;28;20028;-16
2020/12/29 19:38:12;;;;;;;10.98;3.97;;;23.90;41.70;;;;;;20972415;28;20345;-16
2020/12/29 19:48:12;;;;;;;18.65;3.92;;;23.80;41.90;;;;;;21012540;28;20103;-16
2020/12/29 19:58:13;;;;;;;8.80;3.63;;;23.80;41.60;;;;;;21066493;28;20032;-16
2020/12/29 20:08:16;;;;;;;8.10;4.05;;;23.70;41.50;;;;;;21083172;28;20036;-16
2020/12/29 20:18:17;;;;;;;8.23;4.55;;;23.70;41.30;;;;;;21084483;28;20170;-17
2020/12/29 20:28:17;;;;;;;8.45;3.38;;;23.70;41.30;;;;;;21087039;28;20027;-15
2020/12/29 20:38:18;;;;;;;8.15;3.75;;;23.60;41.30;;;;;;21086219;28;20033;-15
2020/12/29 20:48:19;;;;;;;8.40;2.80;;;23.60;41.10;;;;;;21081843;28;20027;-16
2020/12/29 20:58:19;;;;;;;6.50;2.78;;;23.70;41.00;;;;;;21076061;28;20078;-14
2020/12/29 21:08:20;;;;;;;7.57;3.72;;;23.90;40.40;;;;;;21063975;28;20124;-15
2020/12/29 21:18:20;;;;;;;7.95;3.13;;;23.80;40.60;;;;;;21022473;28;20024;-15
2020/12/29 21:28:21;;;;;;;7.22;2.53;;;24.00;40.60;;;;;;21051297;28;20024;-15
2020/12/29 21:38:21;;;;;;;6.72;3.08;;;23.90;41.30;;;;;;21009195;28;20032;-15
2020/12/29 21:48:22;;;;;;;12.63;3.15;;;24.10;41.10;;;;;;20931481;28;20029;-15
2020/12/29 21:58:22;;;;;;;5.20;2.28;;;24.00;41.30;;;;;;20946420;28;20051;-14
2020/12/29 22:08:23;;;;;;;6.45;2.60;;;24.10;41.20;;;;;;21041712;28;20035;-15
2020/12/29 22:18:23;;;;;;;5.47;1.90;;;23.90;41.20;;;;;;21019175;28;20028;-14
2020/12/29 22:28:24;;;;;;;5.38;2.40;;;23.60;41.70;;;;;;21043755;28;20484;-16
2020/12/29 22:38:24;;;;;;;4.18;1.98;;;23.30;42.10;;;;;;21046162;28;20030;-16
2020/12/29 22:48:25;;;;;;;3.42;1.77;;;23.10;42.80;;;;;;21051364;28;20610;-16
2020/12/29 22:58:26;;;;;;;4.40;1.70;;;22.90;43.20;;;;;;21043408;28;20035;-15
2020/12/29 23:08:26;;;;;;;5.20;2.03;;;22.80;43.50;;;;;;21046162;28;20031;-15
2020/12/29 23:18:27;;;;;;;10.23;2.03;;;22.40;44.10;;;;;;21049250;28;20048;-15
2020/12/29 23:28:28;;;;;;;4.55;1.50;;;22.20;44.30;;;;;;21049682;28;20024;-16
2020/12/29 23:38:28;;;;;;;5.18;1.50;;;22.10;44.70;;;;;;21049482;28;20496;-14
2020/12/29 23:48:29;;;;;;;3.85;1.75;;;22.00;44.60;;;;;;21031376;28;20384;-15
2020/12/29 23:58:29;;;;;;;5.78;2.08;;;21.90;44.90;;;;;;21050187;28;20040;-15
